Time;durP1;ratioP1;P1;durP2;ratioP2;P2;SDS_P1;SDS_P2;PMS_P1;PMS_P2;Temp;Humidity;BMP_temperature;BMP_pressure;BME280_temperature;BME280_humidity;BME280_pressure;Samples;Min_cycle;Max_cycle;Signal;HPM_P1;HPM_P2
2022/03/11 00:01:12;;;;;;;27.80;15.70;;;;;;;-5.17;64.28;100724.05;105305;1270;62184;-74
2022/03/11 00:03:38;;;;;;;27.30;18.00;;;;;;;-5.19;64.38;100722.95;105388;1270;74105;-74
2022/03/11 00:06:05;;;;;;;29.10;18.00;;;;;;;-5.19;64.35;100722.25;105515;1270;70402;-74
2022/03/11 00:08:31;;;;;;;26.10;15.10;;;;;;;-5.19;64.60;100722.44;105582;1270;62108;-75
2022/03/11 00:10:58;;;;;;;25.60;15.70;;;;;;;-5.15;64.84;100721.83;105703;1270;62181;-72
2022/03/11 00:13:25;;;;;;;32.10;16.50;;;;;;;-5.10;64.70;100720.05;106924;1270;62057;-75
2022/03/11 00:15:51;;;;;;;27.40;16.80;;;;;;;-5.07;64.50;100722.38;107826;1270;62101;-75
2022/03/11 00:18:18;;;;;;;32.10;17.30;;;;;;;-5.07;64.65;100717.88;107813;1270;62314;-74
2022/03/11 00:20:45;;;;;;;32.40;17.80;;;;;;;-5.08;64.69;100714.04;107507;1271;73116;-75
2022/03/11 00:23:11;;;;;;;29.60;16.20;;;;;;;-5.09;64.66;100713.14;107721;1269;62072;-75
2022/03/11 00:25:38;;;;;;;29.60;16.50;;;;;;;-5.10;64.76;100710.52;105754;1270;62096;-73
2022/03/11 00:28:04;;;;;;;28.90;17.70;;;;;;;-5.12;64.81;100714.11;105249;1270;62057;-74
2022/03/11 00:30:31;;;;;;;31.50;17.90;;;;;;;-5.15;64.75;100713.70;105239;1270;62201;-75
2022/03/11 00:32:57;;;;;;;30.90;17.40;;;;;;;-5.18;64.78;100713.96;105150;1271;62003;-74
2022/03/11 00:35:24;;;;;;;27.30;16.60;;;;;;;-5.22;64.83;100713.02;105205;1270;62191;-75
2022/03/11 00:37:50;;;;;;;32.10;18.00;;;;;;;-5.24;65.07;100711.21;105280;1270;62151;-73
2022/03/11 00:40:16;;;;;;;33.00;16.60;;;;;;;-5.25;64.91;100709.29;105220;1270;62179;-73
2022/03/11 00:42:43;;;;;;;30.90;18.00;;;;;;;-5.27;65.17;100708.73;105220;1270;62073;-75
2022/03/11 00:45:10;;;;;;;27.50;15.60;;;;;;;-5.28;65.18;100705.76;105219;1270;62071;-76
2022/03/11 00:47:37;;;;;;;31.00;16.10;;;;;;;-5.29;65.01;100703.64;105209;1270;62041;-73
2022/03/11 00:50:04;;;;;;;26.90;16.30;;;;;;;-5.30;65.19;100697.73;105226;1270;62165;-74
2022/03/11 00:52:31;;;;;;;25.10;14.60;;;;;;;-5.31;65.15;100695.80;104786;1270;214373;-74
2022/03/11 00:54:58;;;;;;;25.40;15.20;;;;;;;-5.30;65.22;100698.25;105196;1270;69043;-73
2022/03/11 00:57:25;;;;;;;22.60;13.90;;;;;;;-5.27;65.32;100697.98;105243;1270;62377;-75
2022/03/11 00:59:52;;;;;;;25.40;14.40;;;;;;;-5.24;65.16;100695.29;105246;1269;62108;-75
2022/03/11 01:02:18;;;;;;;28.90;15.00;;;;;;;-5.23;65.10;100693.05;105242;1270;62056;-75
2022/03/11 01:04:47;;;;;;;24.30;15.30;;;;;;;-5.23;65.04;100693.41;105202;1268;62078;-73
2022/03/11 01:07:13;;;;;;;27.50;15.10;;;;;;;-5.24;65.04;100694.41;105158;1270;69217;-74
2022/03/11 01:09:40;;;;;;;25.60;15.30;;;;;;;-5.27;64.99;100695.55;104967;1270;62150;-73
2022/03/11 01:12:07;;;;;;;28.90;14.80;;;;;;;-5.31;64.99;100697.19;105079;1271;62067;-73
2022/03/11 01:14:33;;;;;;;22.00;13.90;;;;;;;-5.36;64.99;100696.39;105244;1270;62099;-74
2022/03/11 01:16:59;;;;;;;28.30;16.00;;;;;;;-5.40;65.35;100695.91;105186;1270;61967;-73
2022/03/11 01:19:26;;;;;;;29.70;16.50;;;;;;;-5.44;65.21;100695.13;105283;1270;62036;-74
2022/03/11 01:21:52;;;;;;;25.90;14.00;;;;;;;-5.49;65.41;100695.52;104545;1269;1003677;-74
2022/03/11 01:24:21;;;;;;;28.40;14.70;;;;;;;-5.52;65.66;100692.70;105036;1270;62179;-74
2022/03/11 01:26:47;;;;;;;29.90;16.50;;;;;;;-5.53;65.76;100694.39;105528;1269;62493;-74
2022/03/11 01:29:14;;;;;;;28.60;15.40;;;;;;;-5.53;65.73;100690.21;105203;1270;62272;-74
2022/03/11 01:31:40;;;;;;;27.30;15.60;;;;;;;-5.55;65.81;100687.43;105253;1270;62076;-74
2022/03/11 01:34:08;;;;;;;25.60;14.90;;;;;;;-5.54;66.06;100690.22;105157;1270;62179;-75
2022/03/11 01:36:35;;;;;;;26.40;15.20;;;;;;;-5.53;65.87;100689.04;105130;1270;62135;-73
2022/03/11 01:39:02;;;;;;;25.10;15.00;;;;;;;-5.52;65.92;100687.51;105870;1270;62195;-75
2022/03/11 01:41:28;;;;;;;25.40;14.00;;;;;;;-5.49;65.92;100683.92;107218;1270;76299;-75
2022/03/11 01:44:01;;;;;;;28.80;14.50;;;;;;;-5.46;65.94;100685.73;107445;1270;61954;-74
2022/03/11 01:46:28;;;;;;;25.60;13.90;;;;;;;-5.44;65.92;100683.36;105384;1270;74816;-74
2022/03/11 01:48:56;;;;;;;24.90;12.90;;;;;;;-5.42;65.99;100681.67;105214;1270;62112;-74
2022/03/11 01:51:23;;;;;;;25.90;14.40;;;;;;;-5.41;65.93;100679.27;105287;1270;62156;-74
2022/03/11 01:53:50;;;;;;;23.80;14.80;;;;;;;-5.41;65.95;100677.38;105229;1270;77566;-74
2022/03/11 01:56:17;;;;;;;27.40;16.10;;;;;;;-5.40;66.06;100675.48;105257;1270;69393;-74
2022/03/11 01:58:48;;;;;;;27.10;14.00;;;;;;;-5.41;66.12;100676.33;105241;1270;73224;-74
2022/03/11 02:01:14;;;;;;;25.90;13.80;;;;;;;-5.43;66.14;100669.71;105257;1270;62127;-75
2022/03/11 02:03:40;;;;;;;32.00;15.40;;;;;;;-5.43;66.20;100676.45;105231;1270;62108;-74
2022/03/11 02:06:08;;;;;;;29.40;17.30;;;;;;;-5.44;66.04;100675.05;105231;1270;62344;-74
2022/03/11 02:08:35;;;;;;;29.00;15.40;;;;;;;-5.45;66.21;100678.65;105247;1270;68248;-73
2022/03/11 02:11:03;;;;;;;27.30;14.30;;;;;;;-5.45;66.48;100682.12;104996;1270;72712;-74
2022/03/11 02:14:01;;;;;;;29.20;16.20;;;;;;;-5.46;66.46;100680.36;105236;1270;62248;-76
2022/03/11 02:16:30;;;;;;;25.90;13.80;;;;;;;-5.48;66.34;100682.92;105239;1270;62165;-75
2022/03/11 02:18:58;;;;;;;31.60;17.00;;;;;;;-5.49;66.44;100684.43;105369;1270;76374;-76
2022/03/11 02:21:27;;;;;;;25.90;14.30;;;;;;;-5.52;66.49;100684.02;105259;1270;69089;-73
2022/03/11 02:23:58;;;;;;;25.60;15.50;;;;;;;-5.53;66.48;100680.17;105457;1270;73165;-73
2022/03/11 02:26:26;;;;;;;28.50;16.30;;;;;;;-5.54;66.60;100681.73;105212;1270;62047;-75
2022/03/11 02:28:55;;;;;;;27.20;15.10;;;;;;;-5.56;66.48;100684.12;105320;1270;62191;-73
2022/03/11 02:31:24;;;;;;;28.20;14.90;;;;;;;-5.57;66.48;100685.98;105367;1270;76985;-74
2022/03/11 02:33:50;;;;;;;28.50;15.00;;;;;;;-5.58;66.69;100685.42;105299;1270;70742;-74
2022/03/11 02:36:18;;;;;;;25.80;15.20;;;;;;;-5.60;66.57;100689.19;105260;1270;61978;-74
2022/03/11 02:38:45;;;;;;;28.10;16.90;;;;;;;-5.61;66.74;100692.98;105237;1268;62073;-74
2022/03/11 02:41:12;;;;;;;32.10;16.20;;;;;;;-5.62;66.69;100694.50;105220;1270;62117;-75
2022/03/11 02:43:41;;;;;;;33.50;17.80;;;;;;;-5.63;66.78;100693.42;105230;1270;76975;-74
2022/03/11 02:46:13;;;;;;;28.40;16.40;;;;;;;-5.66;66.77;100694.75;105376;1270;69210;-73
2022/03/11 02:48:40;;;;;;;30.00;17.20;;;;;;;-5.68;66.94;100697.45;105303;1270;73382;-74
2022/03/11 02:51:07;;;;;;;37.50;18.40;;;;;;;-5.70;66.92;100696.02;105284;1270;62197;-74
2022/03/11 02:53:37;;;;;;;29.50;16.90;;;;;;;-5.71;66.94;100697.20;104947;1270;64467;-75
2022/03/11 02:56:04;;;;;;;28.10;16.50;;;;;;;-5.72;66.94;100700.29;105278;1270;75499;-72
2022/03/11 02:58:30;;;;;;;29.90;15.10;;;;;;;-5.74;67.10;100700.24;105241;1270;62086;-74
2022/03/11 03:01:00;;;;;;;39.00;26.20;;;;;;;-5.75;67.08;100699.53;104943;1270;62300;-75
2022/03/11 03:03:27;;;;;;;37.40;21.00;;;;;;;-5.77;67.31;100697.92;105241;1270;62079;-73
2022/03/11 03:05:53;;;;;;;29.50;17.70;;;;;;;-5.76;67.18;100697.43;105202;1269;62040;-74
2022/03/11 03:08:20;;;;;;;38.60;23.10;;;;;;;-5.77;67.27;100697.59;105253;1270;62105;-73
2022/03/11 03:10:46;;;;;;;34.70;19.50;;;;;;;-5.79;67.48;100695.27;105230;1269;62110;-75
2022/03/11 03:13:13;;;;;;;40.60;23.70;;;;;;;-5.79;67.55;100697.01;104951;1270;62164;-74
2022/03/11 03:15:41;;;;;;;60.80;38.00;;;;;;;-5.81;67.67;100696.63;105270;1270;62067;-73
2022/03/11 03:18:07;;;;;;;44.30;24.90;;;;;;;-5.82;67.63;100697.61;105263;1270;62056;-73
2022/03/11 03:20:34;;;;;;;40.50;23.40;;;;;;;-5.86;67.81;100699.06;104926;1270;76256;-73
2022/03/11 03:23:00;;;;;;;38.40;20.90;;;;;;;-5.89;67.91;100694.15;105228;1270;62134;-74
2022/03/11 03:25:27;;;;;;;36.80;20.30;;;;;;;-5.91;67.98;100692.88;105227;1268;62069;-74
2022/03/11 03:27:53;;;;;;;32.30;19.00;;;;;;;-5.97;68.05;100691.38;105262;1270;62187;-74
2022/03/11 03:30:20;;;;;;;34.10;20.00;;;;;;;-6.06;68.19;100693.73;104932;1270;62100;-74
2022/03/11 03:32:46;;;;;;;34.80;19.40;;;;;;;-6.11;68.29;100690.27;105258;1270;61958;-75
2022/03/11 03:35:13;;;;;;;36.00;21.00;;;;;;;-6.19;68.40;100690.60;105220;1270;62037;-73
2022/03/11 03:37:39;;;;;;;35.70;20.70;;;;;;;-6.26;68.43;100690.39;105246;1270;73715;-73
2022/03/11 03:40:08;;;;;;;39.40;22.40;;;;;;;-6.34;68.65;100692.41;105284;1270;62242;-73
2022/03/11 03:42:34;;;;;;;38.70;21.20;;;;;;;-6.43;68.71;100693.91;105340;1270;62146;-75
2022/03/11 03:45:02;;;;;;;39.10;19.60;;;;;;;-6.49;69.06;100692.85;104962;1270;75930;-74
2022/03/11 03:47:28;;;;;;;38.40;20.70;;;;;;;-6.53;69.28;100697.56;104531;1270;1003400;-74
2022/03/11 03:49:55;;;;;;;36.50;21.70;;;;;;;-6.57;69.22;100695.05;105230;1270;62687;-73
2022/03/11 03:52:21;;;;;;;30.20;17.30;;;;;;;-6.60;69.29;100701.17;105205;1270;62043;-74
2022/03/11 03:54:48;;;;;;;33.90;19.10;;;;;;;-6.60;69.68;100697.90;104981;1270;62100;-75
2022/03/11 03:57:14;;;;;;;29.50;18.80;;;;;;;-6.58;69.93;100701.77;105226;1268;62084;-73
2022/03/11 03:59:41;;;;;;;32.40;19.30;;;;;;;-6.55;69.80;100703.05;105024;1270;75079;-73
2022/03/11 04:02:07;;;;;;;31.40;18.00;;;;;;;-6.53;69.94;100704.15;105257;1270;62085;-76
2022/03/11 04:04:34;;;;;;;32.00;18.60;;;;;;;-6.51;69.96;100705.06;104937;1270;62144;-74
2022/03/11 04:07:00;;;;;;;40.10;20.60;;;;;;;-6.51;70.12;100705.42;105233;1270;62035;-73
2022/03/11 04:09:27;;;;;;;34.30;20.30;;;;;;;-6.48;70.10;100707.91;105271;1270;62177;-75
2022/03/11 04:11:53;;;;;;;34.60;19.60;;;;;;;-6.46;70.20;100712.81;105221;1270;62089;-75
2022/03/11 04:14:20;;;;;;;36.50;21.40;;;;;;;-6.45;70.22;100713.71;105228;1270;62176;-74
2022/03/11 04:16:46;;;;;;;35.00;20.50;;;;;;;-6.46;70.26;100711.10;105267;1270;62084;-73
2022/03/11 04:19:13;;;;;;;37.50;18.90;;;;;;;-6.46;70.34;100707.80;104972;1270;62314;-74
2022/03/11 04:21:39;;;;;;;35.10;20.00;;;;;;;-6.46;70.49;100706.95;105079;1271;62199;-74
2022/03/11 04:24:14;;;;;;;36.70;20.50;;;;;;;-6.44;70.48;100716.69;105252;1269;62068;-74
2022/03/11 04:26:44;;;;;;;39.20;20.80;;;;;;;-6.43;70.63;100714.64;105122;1270;73150;-75
2022/03/11 04:29:11;;;;;;;39.80;22.60;;;;;;;-6.44;70.53;100711.33;105226;1270;62170;-75
2022/03/11 04:31:39;;;;;;;40.80;21.70;;;;;;;-6.45;70.72;100712.35;105244;1269;61955;-75
2022/03/11 04:34:05;;;;;;;37.70;21.00;;;;;;;-6.47;70.76;100714.34;105182;1270;76070;-74
2022/03/11 04:36:38;;;;;;;39.10;23.20;;;;;;;-6.48;70.83;100715.70;105218;1270;68739;-74
2022/03/11 04:39:08;;;;;;;38.50;24.00;;;;;;;-6.46;70.93;100713.85;105174;1270;74226;-76
2022/03/11 04:41:36;;;;;;;38.20;21.70;;;;;;;-6.46;71.18;100713.00;105253;1270;62082;-75
2022/03/11 04:44:04;;;;;;;32.90;20.20;;;;;;;-6.47;71.07;100711.23;105241;1270;62178;-74
2022/03/11 04:46:30;;;;;;;37.10;22.20;;;;;;;-6.49;71.13;100710.84;105260;1270;76374;-74
2022/03/11 04:48:57;;;;;;;42.20;24.40;;;;;;;-6.52;71.38;100710.92;104979;1270;70747;-74
2022/03/11 04:51:25;;;;;;;41.80;25.50;;;;;;;-6.53;71.43;100713.46;105192;1270;74452;-74
2022/03/11 04:53:53;;;;;;;39.60;23.70;;;;;;;-6.53;71.43;100715.39;105397;1270;62112;-74
2022/03/11 04:56:19;;;;;;;41.80;24.70;;;;;;;-6.57;71.48;100717.50;105234;1270;62207;-74
2022/03/11 04:58:46;;;;;;;37.60;21.10;;;;;;;-6.61;71.66;100718.61;105264;1270;75543;-74
2022/03/11 05:01:12;;;;;;;43.40;22.90;;;;;;;-6.69;71.74;100717.15;105204;1270;62098;-74
2022/03/11 05:03:39;;;;;;;47.60;25.30;;;;;;;-6.74;72.12;100717.52;105225;1270;62067;-74
2022/03/11 05:06:06;;;;;;;44.80;24.00;;;;;;;-6.76;72.05;100717.62;105235;1270;62072;-74
2022/03/11 05:08:32;;;;;;;45.40;24.00;;;;;;;-6.80;72.24;100721.84;105266;1270;62185;-75
2022/03/11 05:10:58;;;;;;;38.50;22.70;;;;;;;-6.84;72.19;100718.42;105246;1270;62072;-75
2022/03/11 05:13:25;;;;;;;43.40;23.90;;;;;;;-6.89;72.48;100720.70;104550;1270;1003041;-74
2022/03/11 05:15:51;;;;;;;42.90;24.60;;;;;;;-6.91;72.46;100722.17;105232;1270;62148;-75
2022/03/11 05:18:18;;;;;;;40.80;23.50;;;;;;;-6.92;72.34;100723.20;105226;1270;62070;-76
2022/03/11 05:20:45;;;;;;;36.90;20.30;;;;;;;-6.90;72.75;100724.96;105278;1270;62608;-75
2022/03/11 05:23:12;;;;;;;39.40;21.60;;;;;;;-6.86;72.60;100723.71;105243;1270;75112;-74
2022/03/11 05:25:38;;;;;;;38.00;20.70;;;;;;;-6.82;72.62;100721.25;105271;1270;69313;-76
2022/03/11 05:28:05;;;;;;;43.10;23.10;;;;;;;-6.76;72.57;100718.65;105280;1270;74283;-74
2022/03/11 05:30:32;;;;;;;45.30;25.60;;;;;;;-6.57;72.49;100718.38;105245;1270;62082;-74
2022/03/11 05:32:58;;;;;;;43.30;26.10;;;;;;;-6.27;72.11;100717.36;105080;1270;62398;-74
2022/03/11 05:35:25;;;;;;;40.10;24.60;;;;;;;-6.00;71.95;100713.59;105265;1270;61997;-74
2022/03/11 05:37:52;;;;;;;43.00;23.20;;;;;;;-5.75;71.64;100717.71;105258;1270;62081;-74
2022/03/11 05:40:18;;;;;;;51.60;28.00;;;;;;;-5.52;71.31;100719.54;105256;1270;73326;-73
2022/03/11 05:42:45;;;;;;;47.80;27.30;;;;;;;-5.30;70.99;100718.69;105320;1270;62113;-75
2022/03/11 05:45:12;;;;;;;50.20;26.50;;;;;;;-5.10;70.54;100723.67;105229;1270;62059;-74
2022/03/11 05:47:39;;;;;;;46.30;25.20;;;;;;;-4.96;70.31;100724.71;105248;1270;74568;-74
2022/03/11 05:50:06;;;;;;;43.70;25.80;;;;;;;-4.81;70.09;100724.02;105250;1270;67336;-74
2022/03/11 05:52:38;;;;;;;46.30;25.90;;;;;;;-4.70;69.65;100727.91;105306;1270;73597;-72
2022/03/11 05:55:05;;;;;;;43.20;24.80;;;;;;;-4.65;69.33;100730.63;105082;1270;62295;-74
2022/03/11 05:57:32;;;;;;;47.20;26.30;;;;;;;-4.72;69.15;100727.52;105412;1270;62173;-74
2022/03/11 05:59:59;;;;;;;43.40;24.80;;;;;;;-4.88;69.53;100725.77;105882;1270;77256;-74
2022/03/11 06:02:25;;;;;;;42.60;26.00;;;;;;;-4.99;69.55;100725.67;105826;1270;62101;-75
2022/03/11 06:04:52;;;;;;;48.10;28.30;;;;;;;-5.08;69.76;100727.53;105214;1270;62079;-73
2022/03/11 06:07:19;;;;;;;52.60;29.10;;;;;;;-5.16;69.68;100728.58;105262;1270;61951;-76
2022/03/11 06:09:47;;;;;;;45.70;27.90;;;;;;;-5.20;69.87;100729.69;105036;1270;62408;-74
2022/03/11 06:12:14;;;;;;;50.50;24.50;;;;;;;-5.23;69.75;100734.98;105255;1270;75897;-73
2022/03/11 06:14:41;;;;;;;47.50;27.10;;;;;;;-5.26;69.80;100733.00;105245;1270;69288;-74
2022/03/11 06:17:08;;;;;;;42.90;24.30;;;;;;;-5.27;69.87;100733.82;105278;1270;73175;-74
2022/03/11 06:19:34;;;;;;;45.50;25.10;;;;;;;-5.30;69.86;100734.45;105260;1270;62115;-74
2022/03/11 06:22:01;;;;;;;46.10;25.60;;;;;;;-5.31;69.86;100737.91;105256;1270;62033;-74
2022/03/11 06:24:27;;;;;;;43.80;25.10;;;;;;;-5.28;70.02;100736.23;105252;1270;62036;-79
2022/03/11 06:26:54;;;;;;;48.70;25.60;;;;;;;-5.25;69.86;100735.47;105268;1270;62116;-73
2022/03/11 06:29:20;;;;;;;44.30;25.00;;;;;;;-5.21;69.86;100737.61;105253;1270;73319;-74
2022/03/11 06:31:47;;;;;;;41.30;24.20;;;;;;;-5.19;69.67;100737.67;105226;1270;62178;-74
2022/03/11 06:34:13;;;;;;;47.80;26.70;;;;;;;-5.17;69.49;100738.95;105216;1270;62038;-75
2022/03/11 06:36:40;;;;;;;46.20;25.20;;;;;;;-5.13;69.55;100740.95;104512;1270;1003621;-74
2022/03/11 06:39:07;;;;;;;48.50;27.00;;;;;;;-5.06;69.55;100746.14;105054;1270;62099;-74
2022/03/11 06:41:34;;;;;;;45.90;25.60;;;;;;;-4.99;69.43;100747.17;105237;1270;73300;-77
2022/03/11 06:44:00;;;;;;;42.30;23.70;;;;;;;-4.91;69.30;100746.16;105222;1270;62289;-74
2022/03/11 06:46:27;;;;;;;42.80;24.10;;;;;;;-4.86;68.93;100743.67;105253;1270;62186;-73
2022/03/11 06:48:53;;;;;;;41.50;23.30;;;;;;;-4.80;68.62;100744.50;105269;1270;62210;-73
2022/03/11 06:51:20;;;;;;;38.50;22.80;;;;;;;-4.71;68.67;100746.45;104955;1270;62227;-75
2022/03/11 06:53:46;;;;;;;39.40;23.20;;;;;;;-4.58;68.62;100749.70;105276;1270;62608;-75
2022/03/11 06:56:13;;;;;;;42.00;23.40;;;;;;;-4.49;68.19;100751.45;104971;1273;62306;-75
2022/03/11 06:58:39;;;;;;;41.00;23.10;;;;;;;-4.42;67.92;100750.55;105257;1270;62065;-73
2022/03/11 07:01:06;;;;;;;41.60;23.20;;;;;;;-4.34;67.74;100750.20;105268;1270;62050;-74
2022/03/11 07:03:32;;;;;;;38.60;21.90;;;;;;;-4.26;67.56;100749.67;105290;1270;62127;-75
2022/03/11 07:05:59;;;;;;;35.90;20.40;;;;;;;-4.18;67.06;100750.03;105272;1270;62163;-74
2022/03/11 07:08:25;;;;;;;39.90;22.10;;;;;;;-4.13;66.79;100751.53;105238;1270;62140;-74
2022/03/11 07:10:52;;;;;;;33.80;20.30;;;;;;;-4.07;66.38;100752.53;105292;1269;62055;-74
2022/03/11 07:13:18;;;;;;;37.50;22.80;;;;;;;-4.03;65.74;100753.83;105281;1269;62160;-74
2022/03/11 07:15:45;;;;;;;32.90;20.60;;;;;;;-4.05;65.49;100760.20;105299;1270;62089;-73
2022/03/11 07:18:12;;;;;;;34.80;21.20;;;;;;;-4.04;65.60;100755.88;105286;1270;73126;-76
2022/03/11 07:20:39;;;;;;;36.30;19.90;;;;;;;-3.99;65.36;100754.78;105296;1269;62496;-76
2022/03/11 07:23:05;;;;;;;33.40;19.30;;;;;;;-3.90;65.22;100752.52;105302;1270;62926;-76
2022/03/11 07:25:34;;;;;;;31.80;19.30;;;;;;;-3.81;65.01;100751.48;105269;1270;62105;-75
2022/03/11 07:28:00;;;;;;;31.80;18.80;;;;;;;-3.75;64.00;100751.59;105277;1270;70655;-77
2022/03/11 07:30:27;;;;;;;34.80;20.20;;;;;;;-3.71;63.70;100751.13;105293;1270;74051;-75
2022/03/11 07:32:53;;;;;;;37.00;23.20;;;;;;;-3.64;63.75;100749.36;105337;1270;62118;-76
2022/03/11 07:35:20;;;;;;;33.80;19.60;;;;;;;-3.55;63.89;100749.53;104966;1270;61987;-74
2022/03/11 07:37:47;;;;;;;30.30;17.50;;;;;;;-3.46;63.41;100745.01;105253;1270;62694;-73
2022/03/11 07:40:14;;;;;;;32.10;19.20;;;;;;;-3.42;62.89;100753.25;105288;1270;69140;-73
2022/03/11 07:42:43;;;;;;;33.20;19.80;;;;;;;-3.36;62.54;100751.61;105267;1270;74478;-73
2022/03/11 07:45:13;;;;;;;31.20;19.30;;;;;;;-3.32;62.75;100749.95;105298;1270;62014;-73
2022/03/11 07:47:41;;;;;;;31.10;17.30;;;;;;;-3.26;61.72;100758.92;105302;1270;62081;-73
2022/03/11 07:50:10;;;;;;;21.50;14.70;;;;;;;-3.23;60.81;100759.14;104580;1270;1002589;-71
2022/03/11 07:52:38;;;;;;;25.10;15.20;;;;;;;-3.23;59.41;100767.48;105403;1270;69466;-73
2022/03/11 07:55:07;;;;;;;26.20;15.90;;;;;;;-3.21;60.11;100764.21;105293;1269;72429;-72
2022/03/11 07:57:36;;;;;;;25.40;15.30;;;;;;;-3.14;58.96;100768.67;105357;1270;62084;-73
2022/03/11 08:00:11;;;;;;;25.30;14.40;;;;;;;-3.09;58.93;100762.52;105432;1270;61917;-74
2022/03/11 08:02:39;;;;;;;24.80;14.20;;;;;;;-3.02;58.65;100764.71;105541;1270;76125;-73
2022/03/11 08:05:14;;;;;;;22.90;13.90;;;;;;;-2.95;58.14;100763.45;105947;1270;70361;-73
2022/03/11 08:07:48;;;;;;;21.60;13.10;;;;;;;-2.91;56.81;100767.88;105185;1270;74659;-73
2022/03/11 08:10:17;;;;;;;22.80;13.00;;;;;;;-2.87;57.17;100760.78;105327;1270;62075;-74
2022/03/11 08:12:44;;;;;;;22.60;14.20;;;;;;;-2.78;57.35;100759.88;105286;1270;61991;-73
2022/03/11 08:15:12;;;;;;;22.90;13.00;;;;;;;-2.66;57.59;100754.14;105294;1270;76898;-73
2022/03/11 08:17:40;;;;;;;21.20;11.90;;;;;;;-2.54;56.82;100751.90;105055;1271;70357;-72
2022/03/11 08:20:08;;;;;;;19.60;11.00;;;;;;;-2.43;56.03;100753.09;105008;1270;74726;-73
2022/03/11 08:22:37;;;;;;;16.90;10.40;;;;;;;-2.35;56.53;100747.98;105361;1270;62175;-73
2022/03/11 08:25:05;;;;;;;17.20;10.00;;;;;;;-2.21;56.03;100744.35;104950;1270;62065;-72
2022/03/11 08:27:32;;;;;;;16.00;10.00;;;;;;;-2.09;55.38;100743.63;105268;1270;77083;-73
2022/03/11 08:29:58;;;;;;;19.00;11.60;;;;;;;-2.02;54.77;100747.89;105215;1270;62131;-72
2022/03/11 08:32:25;;;;;;;18.30;11.80;;;;;;;-2.03;53.93;100745.61;105269;1270;62690;-72
2022/03/11 08:34:53;;;;;;;18.80;11.40;;;;;;;-2.01;53.85;100744.77;105274;1270;62071;-74
2022/03/11 08:37:20;;;;;;;20.50;11.40;;;;;;;-1.97;52.95;100747.41;105254;1270;62098;-73
2022/03/11 08:39:47;;;;;;;18.70;11.00;;;;;;;-1.94;53.38;100746.07;105227;1270;76173;-73
2022/03/11 08:42:15;;;;;;;21.20;12.70;;;;;;;-1.87;53.38;100741.27;105212;1270;62059;-74
2022/03/11 08:44:42;;;;;;;16.80;11.50;;;;;;;-1.75;53.80;100746.48;105222;1270;74298;-74
2022/03/11 08:47:10;;;;;;;17.20;10.70;;;;;;;-1.64;52.72;100746.06;105257;1270;62177;-73
2022/03/11 08:49:36;;;;;;;19.90;11.20;;;;;;;-1.57;53.52;100744.21;105270;1270;62091;-74
2022/03/11 08:52:03;;;;;;;21.60;11.30;;;;;;;-1.48;53.26;100748.50;104950;1270;74574;-74
2022/03/11 08:54:29;;;;;;;17.40;11.20;;;;;;;-1.39;52.70;100748.40;105238;1270;70328;-74
2022/03/11 08:56:56;;;;;;;22.30;12.40;;;;;;;-1.34;52.57;100746.19;104943;1270;62179;-73
2022/03/11 08:59:22;;;;;;;16.20;9.60;;;;;;;-1.27;52.07;100740.86;105226;1270;62114;-73
2022/03/11 09:01:49;;;;;;;14.30;8.90;;;;;;;-1.21;50.12;100743.01;105252;1270;62201;-72
2022/03/11 09:04:15;;;;;;;15.30;9.90;;;;;;;-1.20;49.49;100740.74;105214;1270;62179;-74
2022/03/11 09:06:42;;;;;;;17.00;9.80;;;;;;;-1.22;47.69;100737.41;105260;1270;62073;-72
2022/03/11 09:09:08;;;;;;;15.00;9.60;;;;;;;-1.21;48.65;100737.23;104921;1272;71873;-73
2022/03/11 09:11:35;;;;;;;15.10;9.50;;;;;;;-1.14;49.12;100734.16;105252;1270;62042;-73
2022/03/11 09:14:02;;;;;;;15.70;10.10;;;;;;;-1.05;48.57;100732.66;105278;1270;62127;-73
2022/03/11 09:16:28;;;;;;;16.40;9.80;;;;;;;-0.93;49.01;100733.46;105276;1270;76144;-74
2022/03/11 09:18:55;;;;;;;17.30;9.70;;;;;;;-0.81;48.83;100728.33;105260;1270;62158;-73
2022/03/11 09:21:21;;;;;;;13.80;9.70;;;;;;;-0.67;48.30;100728.94;105278;1270;62163;-72
2022/03/11 09:23:48;;;;;;;12.20;8.40;;;;;;;-0.57;48.07;100724.64;105197;1270;62155;-72
2022/03/11 09:26:15;;;;;;;12.20;8.80;;;;;;;-0.47;47.74;100716.14;105268;1270;62107;-74
2022/03/11 09:28:42;;;;;;;11.10;8.40;;;;;;;-0.35;47.95;100715.16;105286;1270;76079;-72
2022/03/11 09:31:08;;;;;;;13.60;8.60;;;;;;;-0.26;47.16;100716.27;105302;1270;69201;-77
2022/03/11 09:33:36;;;;;;;17.30;10.00;;;;;;;-0.20;47.38;100715.24;105275;1270;72464;-82
2022/03/11 09:36:04;;;;;;;13.50;8.60;;;;;;;-0.08;47.99;100711.63;105167;1270;62136;-74
2022/03/11 09:38:31;;;;;;;12.30;8.10;;;;;;;0.02;46.74;100713.92;105202;1270;62045;-74
2022/03/11 09:41:00;;;;;;;14.10;8.50;;;;;;;0.03;45.72;100715.50;105451;1270;75975;-75
2022/03/11 09:43:27;;;;;;;15.70;8.60;;;;;;;-0.06;44.62;100714.59;105401;1270;69400;-73
2022/03/11 09:45:55;;;;;;;12.50;8.50;;;;;;;-0.10;45.24;100716.68;105360;1270;74352;-74
2022/03/11 09:48:22;;;;;;;12.40;8.20;;;;;;;-0.05;44.70;100722.98;105324;1267;61970;-73
2022/03/11 09:50:49;;;;;;;12.30;8.40;;;;;;;-0.07;44.19;100717.56;105472;1271;62125;-74
2022/03/11 09:53:17;;;;;;;13.50;7.80;;;;;;;-0.04;44.65;100722.45;105269;1270;76303;-75
2022/03/11 09:55:44;;;;;;;13.00;8.30;;;;;;;0.06;44.83;100720.40;105279;1270;69870;-73
2022/03/11 09:58:10;;;;;;;12.40;7.90;;;;;;;0.15;44.35;100713.98;105102;1270;73140;-73
2022/03/11 10:00:37;;;;;;;12.60;8.80;;;;;;;0.23;43.67;100719.23;105284;1270;62203;-72
2022/03/11 10:03:04;;;;;;;15.40;8.50;;;;;;;0.34;44.27;100710.18;105295;1270;62217;-74
2022/03/11 10:05:46;;;;;;;13.90;8.10;;;;;;;0.49;44.03;100708.98;105199;1271;76193;-76
2022/03/11 10:08:12;;;;;;;13.50;8.70;;;;;;;0.56;42.53;100711.09;105338;1270;69226;-75
2022/03/11 10:10:39;;;;;;;14.90;9.20;;;;;;;0.53;42.33;100713.37;104994;1271;73808;-73
2022/03/11 10:13:10;;;;;;;17.10;9.70;;;;;;;0.60;43.35;100713.89;105404;1270;62497;-75
2022/03/11 10:15:38;;;;;;;14.10;7.80;;;;;;;0.70;42.61;100715.30;105661;1270;62066;-73
2022/03/11 10:18:08;;;;;;;12.40;7.40;;;;;;;0.72;41.97;100713.20;105498;1270;76463;-73
2022/03/11 10:20:36;;;;;;;10.60;6.90;;;;;;;0.75;41.61;100714.43;105256;1270;70218;-73
2022/03/11 10:23:11;;;;;;;11.20;7.60;;;;;;;0.72;40.95;100714.26;105321;1270;73118;-74
2022/03/11 10:25:38;;;;;;;11.20;7.90;;;;;;;0.73;40.83;100710.23;105345;1270;62069;-73
2022/03/11 10:28:10;;;;;;;13.10;7.40;;;;;;;0.78;40.73;100715.83;105239;1270;62118;-73
2022/03/11 10:30:39;;;;;;;14.20;8.60;;;;;;;0.77;40.57;100716.71;105264;1270;76932;-73
2022/03/11 10:33:09;;;;;;;17.30;9.00;;;;;;;0.72;40.14;100717.41;105431;1270;68779;-74
2022/03/11 10:35:47;;;;;;;12.80;8.60;;;;;;;0.68;40.24;100710.21;105396;1271;73203;-74
2022/03/11 10:38:21;;;;;;;11.90;7.70;;;;;;;0.70;40.29;100710.41;105160;1270;62194;-74
2022/03/11 10:40:57;;;;;;;13.90;8.40;;;;;;;0.77;39.82;100709.36;105228;1270;61959;-74
2022/03/11 10:43:28;;;;;;;13.30;7.90;;;;;;;0.77;39.94;100707.96;105043;1271;76289;-72
2022/03/11 10:46:09;;;;;;;;;;;;;;;0.79;40.23;100704.12;105442;1270;68808;-75
2022/03/11 10:48:49;;;;;;;12.00;7.80;;;;;;;0.87;39.47;100700.62;105251;1270;74345;-73
2022/03/11 10:51:20;;;;;;;10.90;7.90;;;;;;;0.83;38.77;100697.81;105322;1270;62146;-75
2022/03/11 10:53:51;;;;;;;20.70;12.90;;;;;;;0.90;40.10;100697.30;105308;1270;62181;-74
2022/03/11 10:56:33;;;;;;;13.10;8.60;;;;;;;1.02;38.93;100693.79;105477;1270;75041;-74
2022/03/11 10:59:02;;;;;;;12.70;8.70;;;;;;;1.05;39.20;100684.69;102293;1270;1003819;-75
2022/03/11 11:01:40;;;;;;;11.70;8.20;;;;;;;1.13;38.55;100688.00;105314;1270;74522;-74
2022/03/11 11:04:10;;;;;;;10.50;7.80;;;;;;;1.25;38.77;100687.81;105092;1270;62491;-75
2022/03/11 11:06:38;;;;;;;12.00;7.80;;;;;;;1.28;37.42;100682.37;105551;1270;62111;-73